Skandia, Michigan
Current Conditions -  °F | °C
As of 10:45 AM on Sunday 21 Dec 2014 (Local Time) from KSAW Reporting Station
Haze Haze  
Wind Chill: 18°   Ceiling: 3300
Heat Index: 28°   Visibility: 4mi
Dew Point: 25°   Wind: 13mph
Humidity: 86%   Direction: 180°S
Pressure: 30.07"   Gusts: NA
Location:  46.38°N, 87.24°W
Report Text: KSAW 211545Z 18011KT 4SM BR SCT015 OVC033 M02/M04 A3007
Loading
Personal Weather Stations






























Interactive Weather Map New forecast layout! Learn more

10-Day Weather Forecast

Advertisements
Track Severe Weather on mobile